sensor_id;sensor_type;location;lat;lon;timestamp;P1;durP1;ratioP1;P2;durP2;ratioP2
40745;SDS011;26454;51.164;4.488;2023-04-01T00:01:49;9.25;;;4.22;;
40745;SDS011;26454;51.164;4.488;2023-04-01T00:04:15;14.38;;;5.00;;
40745;SDS011;26454;51.164;4.488;2023-04-01T00:06:42;16.48;;;5.63;;
40745;SDS011;26454;51.164;4.488;2023-04-01T00:09:08;13.40;;;5.15;;
40745;SDS011;26454;51.164;4.488;2023-04-01T00:11:35;10.55;;;5.78;;
40745;SDS011;26454;51.164;4.488;2023-04-01T00:14:05;14.38;;;5.88;;
40745;SDS011;26454;51.164;4.488;2023-04-01T00:16:31;39.53;;;9.27;;
40745;SDS011;26454;51.164;4.488;2023-04-01T00:18:57;14.43;;;5.82;;
40745;SDS011;26454;51.164;4.488;2023-04-01T00:21:29;12.60;;;5.93;;
40745;SDS011;26454;51.164;4.488;2023-04-01T00:23:55;16.65;;;7.28;;
40745;SDS011;26454;51.164;4.488;2023-04-01T00:26:22;13.80;;;6.20;;
40745;SDS011;26454;51.164;4.488;2023-04-01T00:28:52;16.08;;;7.20;;
40745;SDS011;26454;51.164;4.488;2023-04-01T00:31:19;14.20;;;7.70;;
40745;SDS011;26454;51.164;4.488;2023-04-01T00:33:48;20.90;;;7.30;;
40745;SDS011;26454;51.164;4.488;2023-04-01T00:36:16;14.68;;;7.88;;
40745;SDS011;26454;51.164;4.488;2023-04-01T00:38:44;20.40;;;9.07;;
40745;SDS011;26454;51.164;4.488;2023-04-01T00:41:20;11.68;;;8.15;;
40745;SDS011;26454;51.164;4.488;2023-04-01T00:43:50;13.68;;;9.48;;
40745;SDS011;26454;51.164;4.488;2023-04-01T00:46:19;17.52;;;8.45;;
40745;SDS011;26454;51.164;4.488;2023-04-01T00:48:47;18.55;;;9.88;;
40745;SDS011;26454;51.164;4.488;2023-04-01T00:51:15;17.05;;;11.52;;
40745;SDS011;26454;51.164;4.488;2023-04-01T00:53:44;48.60;;;12.75;;
40745;SDS011;26454;51.164;4.488;2023-04-01T00:56:13;19.98;;;10.43;;
40745;SDS011;26454;51.164;4.488;2023-04-01T00:58:43;20.48;;;11.10;;
40745;SDS011;26454;51.164;4.488;2023-04-01T01:01:12;19.30;;;11.68;;
40745;SDS011;26454;51.164;4.488;2023-04-01T01:03:38;31.90;;;12.25;;
40745;SDS011;26454;51.164;4.488;2023-04-01T01:06:09;23.92;;;11.13;;
40745;SDS011;26454;51.164;4.488;2023-04-01T01:08:39;21.15;;;11.23;;
40745;SDS011;26454;51.164;4.488;2023-04-01T01:11:10;21.35;;;12.27;;
40745;SDS011;26454;51.164;4.488;2023-04-01T01:13:43;22.33;;;12.35;;
40745;SDS011;26454;51.164;4.488;2023-04-01T01:16:18;25.65;;;13.15;;
40745;SDS011;26454;51.164;4.488;2023-04-01T01:18:57;17.85;;;12.43;;
40745;SDS011;26454;51.164;4.488;2023-04-01T01:21:30;24.00;;;12.85;;
40745;SDS011;26454;51.164;4.488;2023-04-01T01:24:16;25.55;;;13.57;;
40745;SDS011;26454;51.164;4.488;2023-04-01T01:26:51;24.23;;;13.55;;
40745;SDS011;26454;51.164;4.488;2023-04-01T01:32:12;29.65;;;15.32;;
40745;SDS011;26454;51.164;4.488;2023-04-01T01:34:51;26.73;;;17.27;;
40745;SDS011;26454;51.164;4.488;2023-04-01T01:37:26;26.27;;;15.98;;
40745;SDS011;26454;51.164;4.488;2023-04-01T01:39:54;26.27;;;16.58;;
40745;SDS011;26454;51.164;4.488;2023-04-01T01:42:22;24.95;;;13.45;;
40745;SDS011;26454;51.164;4.488;2023-04-01T01:44:49;22.83;;;13.15;;
40745;SDS011;26454;51.164;4.488;2023-04-01T01:47:17;17.48;;;10.90;;
40745;SDS011;26454;51.164;4.488;2023-04-01T01:49:44;18.88;;;11.48;;
40745;SDS011;26454;51.164;4.488;2023-04-01T01:52:14;14.93;;;12.05;;
40745;SDS011;26454;51.164;4.488;2023-04-01T01:54:49;19.10;;;12.10;;
40745;SDS011;26454;51.164;4.488;2023-04-01T01:57:18;18.85;;;13.95;;
40745;SDS011;26454;51.164;4.488;2023-04-01T01:59:45;23.25;;;14.23;;
40745;SDS011;26454;51.164;4.488;2023-04-01T02:02:12;18.52;;;13.65;;
40745;SDS011;26454;51.164;4.488;2023-04-01T02:04:40;26.75;;;15.00;;
40745;SDS011;26454;51.164;4.488;2023-04-01T02:07:08;22.38;;;15.93;;
40745;SDS011;26454;51.164;4.488;2023-04-01T02:09:37;18.25;;;14.70;;
40745;SDS011;26454;51.164;4.488;2023-04-01T02:12:06;18.88;;;13.40;;
40745;SDS011;26454;51.164;4.488;2023-04-01T02:14:37;16.92;;;11.88;;
40745;SDS011;26454;51.164;4.488;2023-04-01T02:17:09;14.57;;;10.90;;
40745;SDS011;26454;51.164;4.488;2023-04-01T02:19:43;17.90;;;13.02;;
40745;SDS011;26454;51.164;4.488;2023-04-01T02:22:14;23.05;;;14.50;;
40745;SDS011;26454;51.164;4.488;2023-04-01T02:24:49;14.70;;;11.35;;
40745;SDS011;26454;51.164;4.488;2023-04-01T02:27:34;14.90;;;11.88;;
40745;SDS011;26454;51.164;4.488;2023-04-01T02:30:00;13.23;;;10.60;;
40745;SDS011;26454;51.164;4.488;2023-04-01T02:32:27;15.23;;;11.77;;
40745;SDS011;26454;51.164;4.488;2023-04-01T02:34:53;17.27;;;11.68;;
40745;SDS011;26454;51.164;4.488;2023-04-01T02:37:21;16.40;;;11.88;;
40745;SDS011;26454;51.164;4.488;2023-04-01T02:39:47;14.80;;;10.45;;
40745;SDS011;26454;51.164;4.488;2023-04-01T02:42:13;17.67;;;10.88;;
40745;SDS011;26454;51.164;4.488;2023-04-01T02:44:40;18.30;;;10.70;;
40745;SDS011;26454;51.164;4.488;2023-04-01T02:47:06;17.88;;;11.05;;
40745;SDS011;26454;51.164;4.488;2023-04-01T02:49:32;13.15;;;11.30;;
40745;SDS011;26454;51.164;4.488;2023-04-01T02:52:01;20.45;;;10.82;;
40745;SDS011;26454;51.164;4.488;2023-04-01T02:54:32;17.20;;;14.27;;
40745;SDS011;26454;51.164;4.488;2023-04-01T02:56:58;16.27;;;12.90;;
40745;SDS011;26454;51.164;4.488;2023-04-01T02:59:24;31.63;;;12.65;;
40745;SDS011;26454;51.164;4.488;2023-04-01T03:01:50;16.52;;;13.35;;
40745;SDS011;26454;51.164;4.488;2023-04-01T03:04:16;14.27;;;12.15;;
40745;SDS011;26454;51.164;4.488;2023-04-01T03:06:43;17.05;;;11.98;;
40745;SDS011;26454;51.164;4.488;2023-04-01T03:09:10;12.75;;;11.07;;
40745;SDS011;26454;51.164;4.488;2023-04-01T03:11:38;13.02;;;11.65;;
40745;SDS011;26454;51.164;4.488;2023-04-01T03:14:13;38.38;;;14.43;;
40745;SDS011;26454;51.164;4.488;2023-04-01T03:16:40;14.55;;;10.73;;
40745;SDS011;26454;51.164;4.488;2023-04-01T03:19:07;13.80;;;10.68;;
40745;SDS011;26454;51.164;4.488;2023-04-01T03:21:40;13.50;;;11.18;;
40745;SDS011;26454;51.164;4.488;2023-04-01T03:24:06;13.20;;;9.75;;
40745;SDS011;26454;51.164;4.488;2023-04-01T03:26:33;9.02;;;7.95;;
40745;SDS011;26454;51.164;4.488;2023-04-01T03:28:59;10.85;;;7.43;;
40745;SDS011;26454;51.164;4.488;2023-04-01T03:31:25;10.32;;;8.30;;
40745;SDS011;26454;51.164;4.488;2023-04-01T03:33:51;13.63;;;8.88;;
40745;SDS011;26454;51.164;4.488;2023-04-01T03:36:19;15.07;;;8.93;;
40745;SDS011;26454;51.164;4.488;2023-04-01T03:38:47;15.85;;;10.45;;
40745;SDS011;26454;51.164;4.488;2023-04-01T03:41:15;12.10;;;9.10;;
40745;SDS011;26454;51.164;4.488;2023-04-01T03:43:42;18.52;;;12.05;;
40745;SDS011;26454;51.164;4.488;2023-04-01T03:46:10;13.70;;;10.23;;
40745;SDS011;26454;51.164;4.488;2023-04-01T03:48:41;13.50;;;9.52;;
40745;SDS011;26454;51.164;4.488;2023-04-01T03:51:10;15.60;;;10.10;;
40745;SDS011;26454;51.164;4.488;2023-04-01T03:53:37;14.15;;;10.73;;
40745;SDS011;26454;51.164;4.488;2023-04-01T03:56:04;17.23;;;11.00;;
40745;SDS011;26454;51.164;4.488;2023-04-01T03:58:32;15.07;;;10.68;;
40745;SDS011;26454;51.164;4.488;2023-04-01T04:00:58;16.63;;;11.27;;
40745;SDS011;26454;51.164;4.488;2023-04-01T04:03:24;15.27;;;11.77;;
40745;SDS011;26454;51.164;4.488;2023-04-01T04:05:51;14.95;;;11.25;;
40745;SDS011;26454;51.164;4.488;2023-04-01T04:08:21;17.73;;;12.85;;
40745;SDS011;26454;51.164;4.488;2023-04-01T04:10:53;23.40;;;14.48;;
40745;SDS011;26454;51.164;4.488;2023-04-01T04:13:20;18.92;;;14.15;;
40745;SDS011;26454;51.164;4.488;2023-04-01T04:15:46;19.92;;;14.50;;
40745;SDS011;26454;51.164;4.488;2023-04-01T04:18:12;25.88;;;15.25;;
40745;SDS011;26454;51.164;4.488;2023-04-01T04:20:43;18.70;;;13.95;;
40745;SDS011;26454;51.164;4.488;2023-04-01T04:23:11;20.63;;;13.77;;
40745;SDS011;26454;51.164;4.488;2023-04-01T04:25:40;23.67;;;13.38;;
40745;SDS011;26454;51.164;4.488;2023-04-01T04:28:07;19.23;;;12.50;;
40745;SDS011;26454;51.164;4.488;2023-04-01T04:30:37;16.85;;;12.20;;
40745;SDS011;26454;51.164;4.488;2023-04-01T04:33:03;18.20;;;11.55;;
40745;SDS011;26454;51.164;4.488;2023-04-01T04:35:30;18.05;;;11.95;;
40745;SDS011;26454;51.164;4.488;2023-04-01T04:37:56;21.80;;;10.38;;
40745;SDS011;26454;51.164;4.488;2023-04-01T04:40:23;16.50;;;11.70;;
40745;SDS011;26454;51.164;4.488;2023-04-01T04:42:49;17.50;;;12.35;;
40745;SDS011;26454;51.164;4.488;2023-04-01T04:45:15;17.20;;;10.38;;
40745;SDS011;26454;51.164;4.488;2023-04-01T04:47:41;18.52;;;12.88;;
40745;SDS011;26454;51.164;4.488;2023-04-01T04:50:08;18.85;;;12.00;;
40745;SDS011;26454;51.164;4.488;2023-04-01T04:52:34;18.05;;;12.05;;
40745;SDS011;26454;51.164;4.488;2023-04-01T04:55:02;16.55;;;10.55;;
40745;SDS011;26454;51.164;4.488;2023-04-01T04:57:28;14.15;;;10.77;;
40745;SDS011;26454;51.164;4.488;2023-04-01T04:59:54;14.10;;;8.60;;
40745;SDS011;26454;51.164;4.488;2023-04-01T05:02:20;11.63;;;8.82;;
40745;SDS011;26454;51.164;4.488;2023-04-01T05:04:46;10.93;;;8.85;;
40745;SDS011;26454;51.164;4.488;2023-04-01T05:07:13;11.68;;;9.35;;
40745;SDS011;26454;51.164;4.488;2023-04-01T05:09:39;13.45;;;9.75;;
40745;SDS011;26454;51.164;4.488;2023-04-01T05:12:05;11.02;;;8.70;;
40745;SDS011;26454;51.164;4.488;2023-04-01T05:14:31;13.48;;;9.27;;
40745;SDS011;26454;51.164;4.488;2023-04-01T05:16:57;10.18;;;7.18;;
40745;SDS011;26454;51.164;4.488;2023-04-01T05:19:24;11.57;;;8.75;;
40745;SDS011;26454;51.164;4.488;2023-04-01T05:21:50;13.65;;;8.70;;
40745;SDS011;26454;51.164;4.488;2023-04-01T05:24:20;13.07;;;7.00;;
40745;SDS011;26454;51.164;4.488;2023-04-01T05:26:46;7.97;;;6.22;;
40745;SDS011;26454;51.164;4.488;2023-04-01T05:29:13;12.75;;;7.13;;
40745;SDS011;26454;51.164;4.488;2023-04-01T05:31:39;10.05;;;6.70;;
40745;SDS011;26454;51.164;4.488;2023-04-01T05:34:05;9.60;;;7.05;;
40745;SDS011;26454;51.164;4.488;2023-04-01T05:36:31;15.93;;;7.53;;
40745;SDS011;26454;51.164;4.488;2023-04-01T05:38:58;11.00;;;6.63;;
40745;SDS011;26454;51.164;4.488;2023-04-01T05:41:24;7.25;;;6.18;;
40745;SDS011;26454;51.164;4.488;2023-04-01T05:43:51;7.93;;;6.75;;
40745;SDS011;26454;51.164;4.488;2023-04-01T05:46:20;14.10;;;7.00;;
40745;SDS011;26454;51.164;4.488;2023-04-01T05:48:46;11.07;;;6.70;;
40745;SDS011;26454;51.164;4.488;2023-04-01T05:51:16;8.93;;;7.40;;
40745;SDS011;26454;51.164;4.488;2023-04-01T05:53:49;13.82;;;8.40;;
40745;SDS011;26454;51.164;4.488;2023-04-01T05:56:15;8.80;;;7.90;;
40745;SDS011;26454;51.164;4.488;2023-04-01T05:58:46;13.38;;;9.23;;
40745;SDS011;26454;51.164;4.488;2023-04-01T06:01:15;10.60;;;8.10;;
40745;SDS011;26454;51.164;4.488;2023-04-01T06:03:41;9.98;;;7.30;;
40745;SDS011;26454;51.164;4.488;2023-04-01T06:06:23;8.85;;;6.32;;
40745;SDS011;26454;51.164;4.488;2023-04-01T06:08:49;9.35;;;6.57;;
40745;SDS011;26454;51.164;4.488;2023-04-01T06:14:05;5.80;;;5.28;;
40745;SDS011;26454;51.164;4.488;2023-04-01T06:19:15;8.20;;;5.18;;
40745;SDS011;26454;51.164;4.488;2023-04-01T06:21:51;6.38;;;5.25;;
40745;SDS011;26454;51.164;4.488;2023-04-01T06:32:31;7.55;;;5.65;;
40745;SDS011;26454;51.164;4.488;2023-04-01T06:37:50;6.13;;;5.40;;
40745;SDS011;26454;51.164;4.488;2023-04-01T06:40:36;9.73;;;7.10;;
40745;SDS011;26454;51.164;4.488;2023-04-01T06:45:53;6.00;;;5.45;;
40745;SDS011;26454;51.164;4.488;2023-04-01T06:56:25;6.65;;;4.05;;
40745;SDS011;26454;51.164;4.488;2023-04-01T07:01:32;5.63;;;5.10;;
40745;SDS011;26454;51.164;4.488;2023-04-01T07:04:00;4.72;;;4.35;;
40745;SDS011;26454;51.164;4.488;2023-04-01T07:06:35;5.15;;;4.55;;
40745;SDS011;26454;51.164;4.488;2023-04-01T07:09:05;6.43;;;5.28;;
40745;SDS011;26454;51.164;4.488;2023-04-01T07:14:01;5.38;;;4.88;;
40745;SDS011;26454;51.164;4.488;2023-04-01T07:16:30;5.80;;;5.18;;
40745;SDS011;26454;51.164;4.488;2023-04-01T07:19:05;5.65;;;5.05;;
40745;SDS011;26454;51.164;4.488;2023-04-01T07:21:36;5.70;;;5.20;;
40745;SDS011;26454;51.164;4.488;2023-04-01T07:24:05;6.95;;;5.68;;
40745;SDS011;26454;51.164;4.488;2023-04-01T07:26:35;5.30;;;4.75;;
40745;SDS011;26454;51.164;4.488;2023-04-01T07:29:02;5.75;;;5.15;;
40745;SDS011;26454;51.164;4.488;2023-04-01T07:39:35;7.30;;;6.03;;
40745;SDS011;26454;51.164;4.488;2023-04-01T07:42:15;6.70;;;6.00;;
40745;SDS011;26454;51.164;4.488;2023-04-01T07:44:57;8.18;;;7.13;;
40745;SDS011;26454;51.164;4.488;2023-04-01T07:47:35;7.88;;;7.07;;
40745;SDS011;26454;51.164;4.488;2023-04-01T07:50:18;8.30;;;7.50;;
40745;SDS011;26454;51.164;4.488;2023-04-01T07:52:59;7.97;;;6.95;;
40745;SDS011;26454;51.164;4.488;2023-04-01T07:55:31;8.02;;;7.22;;
40745;SDS011;26454;51.164;4.488;2023-04-01T08:00:39;7.80;;;7.00;;
40745;SDS011;26454;51.164;4.488;2023-04-01T08:03:13;9.27;;;8.07;;
40745;SDS011;26454;51.164;4.488;2023-04-01T08:08:31;10.05;;;9.05;;
40745;SDS011;26454;51.164;4.488;2023-04-01T08:21:34;9.80;;;7.05;;
40745;SDS011;26454;51.164;4.488;2023-04-01T08:24:06;5.72;;;5.00;;
40745;SDS011;26454;51.164;4.488;2023-04-01T08:26:41;4.88;;;4.38;;
40745;SDS011;26454;51.164;4.488;2023-04-01T08:29:12;6.78;;;5.22;;
40745;SDS011;26454;51.164;4.488;2023-04-01T08:31:45;6.00;;;5.50;;
40745;SDS011;26454;51.164;4.488;2023-04-01T08:34:15;7.47;;;5.57;;
40745;SDS011;26454;51.164;4.488;2023-04-01T08:36:45;5.15;;;4.65;;
40745;SDS011;26454;51.164;4.488;2023-04-01T08:39:17;6.07;;;4.78;;
40745;SDS011;26454;51.164;4.488;2023-04-01T08:41:53;4.78;;;4.32;;
40745;SDS011;26454;51.164;4.488;2023-04-01T08:47:07;6.68;;;5.90;;
40745;SDS011;26454;51.164;4.488;2023-04-01T08:49:42;6.38;;;5.45;;
40745;SDS011;26454;51.164;4.488;2023-04-01T08:55:00;9.52;;;8.02;;
40745;SDS011;26454;51.164;4.488;2023-04-01T08:57:36;9.70;;;7.40;;
40745;SDS011;26454;51.164;4.488;2023-04-01T09:00:10;7.93;;;7.13;;
40745;SDS011;26454;51.164;4.488;2023-04-01T09:02:45;10.93;;;9.30;;
40745;SDS011;26454;51.164;4.488;2023-04-01T09:08:02;15.07;;;11.70;;
40745;SDS011;26454;51.164;4.488;2023-04-01T09:13:22;8.85;;;7.95;;
40745;SDS011;26454;51.164;4.488;2023-04-01T09:15:57;7.70;;;7.00;;
40745;SDS011;26454;51.164;4.488;2023-04-01T09:23:43;5.07;;;4.57;;
40745;SDS011;26454;51.164;4.488;2023-04-01T09:26:20;6.60;;;5.82;;
40745;SDS011;26454;51.164;4.488;2023-04-01T09:31:39;5.88;;;5.25;;
40745;SDS011;26454;51.164;4.488;2023-04-01T09:34:12;4.65;;;4.25;;
40745;SDS011;26454;51.164;4.488;2023-04-01T09:36:45;6.05;;;5.40;;
40745;SDS011;26454;51.164;4.488;2023-04-01T09:39:18;5.35;;;4.85;;
40745;SDS011;26454;51.164;4.488;2023-04-01T09:47:09;4.72;;;4.32;;
40745;SDS011;26454;51.164;4.488;2023-04-01T09:52:37;5.25;;;4.85;;
40745;SDS011;26454;51.164;4.488;2023-04-01T09:55:10;6.47;;;5.88;;
40745;SDS011;26454;51.164;4.488;2023-04-01T09:57:45;9.68;;;7.32;;
40745;SDS011;26454;51.164;4.488;2023-04-01T10:08:26;6.15;;;5.32;;
40745;SDS011;26454;51.164;4.488;2023-04-01T10:16:18;13.25;;;8.80;;
40745;SDS011;26454;51.164;4.488;2023-04-01T10:21:38;13.75;;;9.77;;
40745;SDS011;26454;51.164;4.488;2023-04-01T10:24:17;8.63;;;7.78;;
40745;SDS011;26454;51.164;4.488;2023-04-01T10:26:55;7.20;;;6.18;;
40745;SDS011;26454;51.164;4.488;2023-04-01T10:32:04;10.02;;;7.63;;
40745;SDS011;26454;51.164;4.488;2023-04-01T10:34:42;15.23;;;10.02;;
40745;SDS011;26454;51.164;4.488;2023-04-01T10:42:54;12.73;;;8.45;;
40745;SDS011;26454;51.164;4.488;2023-04-01T10:45:35;19.27;;;10.52;;
40745;SDS011;26454;51.164;4.488;2023-04-01T10:48:18;13.88;;;9.40;;
40745;SDS011;26454;51.164;4.488;2023-04-01T10:53:31;11.18;;;7.78;;
40745;SDS011;26454;51.164;4.488;2023-04-01T10:56:08;8.15;;;6.30;;
40745;SDS011;26454;51.164;4.488;2023-04-01T11:07:12;7.25;;;5.05;;
40745;SDS011;26454;51.164;4.488;2023-04-01T11:15:14;10.27;;;9.25;;
40745;SDS011;26454;51.164;4.488;2023-04-01T11:20:35;9.43;;;8.05;;
40745;SDS011;26454;51.164;4.488;2023-04-01T11:23:11;10.63;;;6.68;;
40745;SDS011;26454;51.164;4.488;2023-04-01T11:25:46;10.23;;;8.07;;
40745;SDS011;26454;51.164;4.488;2023-04-01T11:28:27;14.20;;;9.23;;
40745;SDS011;26454;51.164;4.488;2023-04-01T11:31:04;15.45;;;11.13;;
40745;SDS011;26454;51.164;4.488;2023-04-01T11:33:43;14.98;;;10.55;;
40745;SDS011;26454;51.164;4.488;2023-04-01T11:36:15;14.82;;;10.75;;
40745;SDS011;26454;51.164;4.488;2023-04-01T11:38:50;18.98;;;9.88;;
40745;SDS011;26454;51.164;4.488;2023-04-01T11:57:26;8.75;;;5.57;;
40745;SDS011;26454;51.164;4.488;2023-04-01T12:00:02;9.88;;;6.97;;
40745;SDS011;26454;51.164;4.488;2023-04-01T12:02:42;7.60;;;6.35;;
40745;SDS011;26454;51.164;4.488;2023-04-01T12:05:20;8.18;;;5.85;;
40745;SDS011;26454;51.164;4.488;2023-04-01T12:08:00;6.50;;;5.32;;
40745;SDS011;26454;51.164;4.488;2023-04-01T12:10:33;11.88;;;6.05;;
40745;SDS011;26454;51.164;4.488;2023-04-01T12:13:05;5.97;;;4.07;;
40745;SDS011;26454;51.164;4.488;2023-04-01T12:15:58;8.95;;;5.60;;
40745;SDS011;26454;51.164;4.488;2023-04-01T12:18:24;9.63;;;7.32;;
40745;SDS011;26454;51.164;4.488;2023-04-01T12:21:00;19.17;;;10.95;;
40745;SDS011;26454;51.164;4.488;2023-04-01T12:26:26;12.43;;;9.13;;
40745;SDS011;26454;51.164;4.488;2023-04-01T12:29:06;14.52;;;8.52;;
40745;SDS011;26454;51.164;4.488;2023-04-01T12:31:39;15.88;;;10.60;;
40745;SDS011;26454;51.164;4.488;2023-04-01T12:39:37;14.52;;;7.70;;
40745;SDS011;26454;51.164;4.488;2023-04-01T12:47:27;9.68;;;6.63;;
40745;SDS011;26454;51.164;4.488;2023-04-01T12:50:12;15.40;;;10.45;;
40745;SDS011;26454;51.164;4.488;2023-04-01T12:52:49;7.10;;;5.85;;
40745;SDS011;26454;51.164;4.488;2023-04-01T12:55:30;7.07;;;5.80;;
40745;SDS011;26454;51.164;4.488;2023-04-01T13:03:53;7.45;;;5.28;;
40745;SDS011;26454;51.164;4.488;2023-04-01T13:06:26;5.68;;;4.88;;
40745;SDS011;26454;51.164;4.488;2023-04-01T13:08:58;4.00;;;3.63;;
40745;SDS011;26454;51.164;4.488;2023-04-01T13:14:11;6.40;;;5.15;;
40745;SDS011;26454;51.164;4.488;2023-04-01T13:16:45;6.93;;;5.28;;
40745;SDS011;26454;51.164;4.488;2023-04-01T13:19:17;7.47;;;5.45;;
40745;SDS011;26454;51.164;4.488;2023-04-01T13:21:51;8.30;;;7.32;;
40745;SDS011;26454;51.164;4.488;2023-04-01T13:24:26;9.65;;;7.75;;
40745;SDS011;26454;51.164;4.488;2023-04-01T13:27:14;9.35;;;8.45;;
40745;SDS011;26454;51.164;4.488;2023-04-01T13:29:44;10.43;;;8.68;;
40745;SDS011;26454;51.164;4.488;2023-04-01T13:32:24;9.93;;;8.57;;
40745;SDS011;26454;51.164;4.488;2023-04-01T13:35:04;14.20;;;11.13;;
40745;SDS011;26454;51.164;4.488;2023-04-01T13:37:41;14.90;;;11.25;;
40745;SDS011;26454;51.164;4.488;2023-04-01T13:40:14;16.33;;;12.40;;
40745;SDS011;26454;51.164;4.488;2023-04-01T13:42:45;15.48;;;11.80;;
40745;SDS011;26454;51.164;4.488;2023-04-01T13:45:15;15.18;;;13.40;;
40745;SDS011;26454;51.164;4.488;2023-04-01T13:50:31;17.98;;;14.55;;
40745;SDS011;26454;51.164;4.488;2023-04-01T13:58:23;11.75;;;10.20;;
40745;SDS011;26454;51.164;4.488;2023-04-01T14:00:54;12.98;;;9.05;;
40745;SDS011;26454;51.164;4.488;2023-04-01T14:03:27;7.75;;;6.50;;
40745;SDS011;26454;51.164;4.488;2023-04-01T14:06:02;6.75;;;6.15;;
40745;SDS011;26454;51.164;4.488;2023-04-01T14:11:13;6.05;;;5.45;;
40745;SDS011;26454;51.164;4.488;2023-04-01T14:13:41;6.60;;;5.95;;
40745;SDS011;26454;51.164;4.488;2023-04-01T14:24:04;7.78;;;7.00;;
40745;SDS011;26454;51.164;4.488;2023-04-01T14:29:29;5.47;;;4.95;;
40745;SDS011;26454;51.164;4.488;2023-04-01T14:34:40;7.05;;;6.35;;
40745;SDS011;26454;51.164;4.488;2023-04-01T14:40:10;12.35;;;8.38;;
40745;SDS011;26454;51.164;4.488;2023-04-01T14:43:15;6.13;;;5.57;;
40745;SDS011;26454;51.164;4.488;2023-04-01T14:45:35;7.30;;;5.82;;
40745;SDS011;26454;51.164;4.488;2023-04-01T14:50:41;11.82;;;7.03;;
40745;SDS011;26454;51.164;4.488;2023-04-01T14:53:11;6.25;;;5.75;;
40745;SDS011;26454;51.164;4.488;2023-04-01T14:55:49;6.80;;;6.13;;
40745;SDS011;26454;51.164;4.488;2023-04-01T14:58:17;6.15;;;4.03;;
40745;SDS011;26454;51.164;4.488;2023-04-01T15:00:48;5.00;;;3.70;;
40745;SDS011;26454;51.164;4.488;2023-04-01T15:03:19;7.70;;;4.65;;
40745;SDS011;26454;51.164;4.488;2023-04-01T15:05:51;6.07;;;5.47;;
40745;SDS011;26454;51.164;4.488;2023-04-01T15:08:20;6.07;;;5.28;;
40745;SDS011;26454;51.164;4.488;2023-04-01T15:10:50;11.82;;;6.25;;
40745;SDS011;26454;51.164;4.488;2023-04-01T15:13:24;5.32;;;4.55;;
40745;SDS011;26454;51.164;4.488;2023-04-01T15:18:37;9.55;;;5.13;;
40745;SDS011;26454;51.164;4.488;2023-04-01T15:21:18;8.98;;;4.85;;
40745;SDS011;26454;51.164;4.488;2023-04-01T15:23:49;4.75;;;4.35;;
40745;SDS011;26454;51.164;4.488;2023-04-01T15:26:21;5.75;;;4.50;;
40745;SDS011;26454;51.164;4.488;2023-04-01T15:28:55;6.10;;;4.70;;
40745;SDS011;26454;51.164;4.488;2023-04-01T15:31:27;6.13;;;5.13;;
40745;SDS011;26454;51.164;4.488;2023-04-01T15:36:44;8.70;;;6.88;;
40745;SDS011;26454;51.164;4.488;2023-04-01T15:39:20;11.90;;;8.93;;
40745;SDS011;26454;51.164;4.488;2023-04-01T15:42:52;13.38;;;9.68;;
40745;SDS011;26454;51.164;4.488;2023-04-01T15:44:41;9.73;;;8.02;;
40745;SDS011;26454;51.164;4.488;2023-04-01T15:49:50;7.15;;;6.43;;
40745;SDS011;26454;51.164;4.488;2023-04-01T15:52:22;7.47;;;6.60;;
40745;SDS011;26454;51.164;4.488;2023-04-01T15:54:57;8.50;;;6.97;;
40745;SDS011;26454;51.164;4.488;2023-04-01T15:57:32;5.47;;;4.78;;
40745;SDS011;26454;51.164;4.488;2023-04-01T16:05:30;13.02;;;7.95;;
40745;SDS011;26454;51.164;4.488;2023-04-01T16:08:02;8.02;;;7.05;;
40745;SDS011;26454;51.164;4.488;2023-04-01T16:16:00;13.95;;;11.77;;
40745;SDS011;26454;51.164;4.488;2023-04-01T16:21:14;12.75;;;9.27;;
40745;SDS011;26454;51.164;4.488;2023-04-01T16:23:51;11.27;;;9.90;;
40745;SDS011;26454;51.164;4.488;2023-04-01T16:28:57;18.08;;;13.52;;
40745;SDS011;26454;51.164;4.488;2023-04-01T16:34:17;17.17;;;13.82;;
40745;SDS011;26454;51.164;4.488;2023-04-01T16:39:28;16.90;;;11.45;;
40745;SDS011;26454;51.164;4.488;2023-04-01T16:42:09;18.38;;;11.80;;
40745;SDS011;26454;51.164;4.488;2023-04-01T16:47:19;23.48;;;15.02;;
40745;SDS011;26454;51.164;4.488;2023-04-01T16:49:52;17.23;;;13.98;;
40745;SDS011;26454;51.164;4.488;2023-04-01T16:55:04;15.43;;;12.40;;
40745;SDS011;26454;51.164;4.488;2023-04-01T16:57:36;16.98;;;13.52;;
40745;SDS011;26454;51.164;4.488;2023-04-01T17:00:16;13.43;;;11.50;;
40745;SDS011;26454;51.164;4.488;2023-04-01T17:02:45;11.00;;;9.88;;
40745;SDS011;26454;51.164;4.488;2023-04-01T17:05:14;12.35;;;10.20;;
40745;SDS011;26454;51.164;4.488;2023-04-01T17:07:46;12.90;;;9.48;;
40745;SDS011;26454;51.164;4.488;2023-04-01T17:10:22;15.38;;;10.18;;
40745;SDS011;26454;51.164;4.488;2023-04-01T17:13:11;13.27;;;8.98;;
40745;SDS011;26454;51.164;4.488;2023-04-01T17:15:41;10.50;;;7.43;;
40745;SDS011;26454;51.164;4.488;2023-04-01T17:18:14;11.27;;;7.50;;
40745;SDS011;26454;51.164;4.488;2023-04-01T17:20:49;11.32;;;7.10;;
40745;SDS011;26454;51.164;4.488;2023-04-01T17:23:19;8.63;;;5.85;;
40745;SDS011;26454;51.164;4.488;2023-04-01T17:25:49;11.10;;;7.53;;
40745;SDS011;26454;51.164;4.488;2023-04-01T17:31:03;6.80;;;5.25;;
40745;SDS011;26454;51.164;4.488;2023-04-01T17:36:12;8.43;;;5.05;;
40745;SDS011;26454;51.164;4.488;2023-04-01T17:44:01;10.30;;;5.95;;
40745;SDS011;26454;51.164;4.488;2023-04-01T17:46:33;7.88;;;5.32;;
40745;SDS011;26454;51.164;4.488;2023-04-01T17:49:18;10.05;;;5.82;;
40745;SDS011;26454;51.164;4.488;2023-04-01T17:51:55;11.15;;;6.60;;
40745;SDS011;26454;51.164;4.488;2023-04-01T17:54:35;9.20;;;6.72;;
40745;SDS011;26454;51.164;4.488;2023-04-01T17:57:23;15.07;;;10.65;;
40745;SDS011;26454;51.164;4.488;2023-04-01T18:00:01;14.32;;;9.07;;
40745;SDS011;26454;51.164;4.488;2023-04-01T18:07:51;21.80;;;12.52;;
40745;SDS011;26454;51.164;4.488;2023-04-01T18:10:26;27.50;;;15.63;;
40745;SDS011;26454;51.164;4.488;2023-04-01T18:13:00;27.77;;;13.73;;
40745;SDS011;26454;51.164;4.488;2023-04-01T18:15:39;25.77;;;14.80;;
40745;SDS011;26454;51.164;4.488;2023-04-01T18:18:10;24.52;;;14.93;;
40745;SDS011;26454;51.164;4.488;2023-04-01T18:20:53;34.30;;;16.73;;
40745;SDS011;26454;51.164;4.488;2023-04-01T18:23:23;25.33;;;16.30;;
40745;SDS011;26454;51.164;4.488;2023-04-01T18:25:53;30.27;;;15.50;;
40745;SDS011;26454;51.164;4.488;2023-04-01T18:28:22;38.42;;;16.98;;
40745;SDS011;26454;51.164;4.488;2023-04-01T18:30:54;33.88;;;16.05;;
40745;SDS011;26454;51.164;4.488;2023-04-01T18:33:25;34.17;;;17.33;;
40745;SDS011;26454;51.164;4.488;2023-04-01T18:35:58;38.05;;;17.42;;
40745;SDS011;26454;51.164;4.488;2023-04-01T18:38:31;30.02;;;16.33;;
40745;SDS011;26454;51.164;4.488;2023-04-01T18:41:10;29.33;;;17.65;;
40745;SDS011;26454;51.164;4.488;2023-04-01T18:43:43;26.75;;;16.20;;
40745;SDS011;26454;51.164;4.488;2023-04-01T18:46:25;25.48;;;15.98;;
40745;SDS011;26454;51.164;4.488;2023-04-01T18:51:37;28.27;;;15.80;;
40745;SDS011;26454;51.164;4.488;2023-04-01T18:54:08;30.27;;;15.52;;
40745;SDS011;26454;51.164;4.488;2023-04-01T18:56:37;40.47;;;18.15;;
40745;SDS011;26454;51.164;4.488;2023-04-01T18:59:05;41.75;;;18.65;;
40745;SDS011;26454;51.164;4.488;2023-04-01T19:01:36;44.45;;;21.38;;
40745;SDS011;26454;51.164;4.488;2023-04-01T19:06:43;36.20;;;20.52;;
40745;SDS011;26454;51.164;4.488;2023-04-01T19:09:17;28.05;;;17.08;;
40745;SDS011;26454;51.164;4.488;2023-04-01T19:11:54;37.17;;;20.38;;
40745;SDS011;26454;51.164;4.488;2023-04-01T19:24:41;45.17;;;24.23;;